sensor_id;sensor_type;location;lat;lon;timestamp;pressure;altitude;pressure_sealevel;temperature;humidity
24486;BME280;13449;49.374;8.584;2024-02-23T00:02:22;98328.34;;;8.01;100.00
24486;BME280;13449;49.374;8.584;2024-02-23T00:04:48;98331.94;;;8.00;100.00
24486;BME280;13449;49.374;8.584;2024-02-23T00:07:15;98346.97;;;7.90;100.00
24486;BME280;13449;49.374;8.584;2024-02-23T00:09:42;98356.81;;;7.96;100.00
24486;BME280;13449;49.374;8.584;2024-02-23T00:12:11;98364.84;;;7.95;100.00
24486;BME280;13449;49.374;8.584;2024-02-23T00:14:37;98373.69;;;7.94;100.00
24486;BME280;13449;49.374;8.584;2024-02-23T00:17:04;98374.50;;;7.94;100.00
24486;BME280;13449;49.374;8.584;2024-02-23T00:19:31;98381.78;;;7.82;100.00
24486;BME280;13449;49.374;8.584;2024-02-23T00:21:58;98391.28;;;7.84;100.00
24486;BME280;13449;49.374;8.584;2024-02-23T00:24:26;98385.16;;;7.75;100.00
24486;BME280;13449;49.374;8.584;2024-02-23T00:26:55;98399.44;;;7.80;100.00
24486;BME280;13449;49.374;8.584;2024-02-23T00:29:23;98399.16;;;7.84;100.00
24486;BME280;13449;49.374;8.584;2024-02-23T00:31:50;98405.81;;;7.78;100.00
24486;BME280;13449;49.374;8.584;2024-02-23T00:34:17;98419.59;;;7.80;100.00
24486;BME280;13449;49.374;8.584;2024-02-23T00:36:44;98427.81;;;7.85;100.00
24486;BME280;13449;49.374;8.584;2024-02-23T00:39:13;98431.94;;;7.70;100.00
24486;BME280;13449;49.374;8.584;2024-02-23T00:41:40;98436.28;;;7.61;100.00
24486;BME280;13449;49.374;8.584;2024-02-23T00:44:07;98438.28;;;7.49;100.00
24486;BME280;13449;49.374;8.584;2024-02-23T00:46:33;98443.34;;;7.33;100.00
24486;BME280;13449;49.374;8.584;2024-02-23T00:49:00;98431.94;;;7.25;100.00
24486;BME280;13449;49.374;8.584;2024-02-23T00:51:29;98441.34;;;7.17;100.00
24486;BME280;13449;49.374;8.584;2024-02-23T00:53:55;98441.78;;;7.13;100.00
24486;BME280;13449;49.374;8.584;2024-02-23T00:56:24;98438.22;;;7.14;100.00
24486;BME280;13449;49.374;8.584;2024-02-23T00:59:01;98436.06;;;7.00;100.00
24486;BME280;13449;49.374;8.584;2024-02-23T01:01:28;98428.41;;;7.16;100.00
24486;BME280;13449;49.374;8.584;2024-02-23T01:03:55;98421.09;;;7.19;100.00
24486;BME280;13449;49.374;8.584;2024-02-23T01:06:21;98424.72;;;7.09;100.00
24486;BME280;13449;49.374;8.584;2024-02-23T01:08:48;98428.41;;;7.16;100.00
24486;BME280;13449;49.374;8.584;2024-02-23T01:11:17;98428.31;;;7.08;100.00
24486;BME280;13449;49.374;8.584;2024-02-23T01:13:46;98435.97;;;7.19;100.00
24486;BME280;13449;49.374;8.584;2024-02-23T01:16:12;98439.06;;;7.05;100.00
24486;BME280;13449;49.374;8.584;2024-02-23T01:18:39;98437.56;;;7.02;100.00
24486;BME280;13449;49.374;8.584;2024-02-23T01:21:06;98425.97;;;7.05;100.00
24486;BME280;13449;49.374;8.584;2024-02-23T01:23:33;98431.81;;;6.99;100.00
24486;BME280;13449;49.374;8.584;2024-02-23T01:25:59;98434.97;;;6.93;100.00
24486;BME280;13449;49.374;8.584;2024-02-23T01:28:26;98423.75;;;6.82;100.00
24486;BME280;13449;49.374;8.584;2024-02-23T01:30:55;98438.19;;;6.86;100.00
24486;BME280;13449;49.374;8.584;2024-02-23T01:33:22;98442.91;;;6.73;100.00
24486;BME280;13449;49.374;8.584;2024-02-23T01:35:48;98452.69;;;6.71;100.00
24486;BME280;13449;49.374;8.584;2024-02-23T01:38:15;98468.91;;;6.84;100.00
24486;BME280;13449;49.374;8.584;2024-02-23T01:40:47;98479.38;;;6.84;100.00
24486;BME280;13449;49.374;8.584;2024-02-23T01:43:14;98477.28;;;6.98;100.00
24486;BME280;13449;49.374;8.584;2024-02-23T01:45:41;98476.31;;;6.99;100.00
24486;BME280;13449;49.374;8.584;2024-02-23T01:48:10;98487.91;;;6.86;100.00
24486;BME280;13449;49.374;8.584;2024-02-23T01:50:38;98497.78;;;6.93;100.00
24486;BME280;13449;49.374;8.584;2024-02-23T01:53:07;98499.28;;;7.05;100.00
24486;BME280;13449;49.374;8.584;2024-02-23T01:55:34;98507.13;;;7.05;100.00
24486;BME280;13449;49.374;8.584;2024-02-23T01:58:04;98507.13;;;7.05;100.00
24486;BME280;13449;49.374;8.584;2024-02-23T02:00:35;98505.19;;;7.07;100.00
24486;BME280;13449;49.374;8.584;2024-02-23T02:03:02;98516.75;;;7.14;100.00
24486;BME280;13449;49.374;8.584;2024-02-23T02:05:29;98518.97;;;7.09;100.00
24486;BME280;13449;49.374;8.584;2024-02-23T02:07:58;98532.31;;;7.15;100.00
24486;BME280;13449;49.374;8.584;2024-02-23T02:10:27;98532.69;;;6.83;100.00
24486;BME280;13449;49.374;8.584;2024-02-23T02:12:54;98541.94;;;6.68;100.00
24486;BME280;13449;49.374;8.584;2024-02-23T02:15:21;98553.22;;;6.59;100.00
24486;BME280;13449;49.374;8.584;2024-02-23T02:17:48;98551.59;;;6.48;100.00
24486;BME280;13449;49.374;8.584;2024-02-23T02:20:17;98559.72;;;6.36;100.00
24486;BME280;13449;49.374;8.584;2024-02-23T02:22:47;98569.19;;;6.27;100.00
24486;BME280;13449;49.374;8.584;2024-02-23T02:25:14;98581.84;;;6.22;100.00
24486;BME280;13449;49.374;8.584;2024-02-23T02:27:43;98590.09;;;6.17;100.00
24486;BME280;13449;49.374;8.584;2024-02-23T02:30:12;98592.56;;;6.09;100.00
24486;BME280;13449;49.374;8.584;2024-02-23T02:32:39;98593.38;;;6.00;100.00
24486;BME280;13449;49.374;8.584;2024-02-23T02:35:06;98592.50;;;5.90;100.00
24486;BME280;13449;49.374;8.584;2024-02-23T02:37:32;98599.41;;;5.91;100.00
24486;BME280;13449;49.374;8.584;2024-02-23T02:40:01;98593.97;;;5.83;100.00
24486;BME280;13449;49.374;8.584;2024-02-23T02:42:33;98592.72;;;5.77;100.00
24486;BME280;13449;49.374;8.584;2024-02-23T02:45:00;98607.28;;;5.80;100.00
24486;BME280;13449;49.374;8.584;2024-02-23T02:47:27;98602.34;;;5.77;100.00
24486;BME280;13449;49.374;8.584;2024-02-23T02:49:54;98605.22;;;5.74;100.00
24486;BME280;13449;49.374;8.584;2024-02-23T02:52:21;98610.31;;;5.75;100.00
24486;BME280;13449;49.374;8.584;2024-02-23T02:54:51;98587.50;;;5.77;100.00
24486;BME280;13449;49.374;8.584;2024-02-23T02:57:17;98599.47;;;5.80;100.00
24486;BME280;13449;49.374;8.584;2024-02-23T02:59:44;98590.94;;;5.78;100.00
24486;BME280;13449;49.374;8.584;2024-02-23T03:02:11;98609.53;;;5.84;100.00
24486;BME280;13449;49.374;8.584;2024-02-23T03:04:38;98602.53;;;5.85;100.00
24486;BME280;13449;49.374;8.584;2024-02-23T03:07:04;98612.47;;;5.91;100.00
24486;BME280;13449;49.374;8.584;2024-02-23T03:09:31;98595.84;;;6.02;100.00
24486;BME280;13449;49.374;8.584;2024-02-23T03:11:57;98595.16;;;6.09;100.00
24486;BME280;13449;49.374;8.584;2024-02-23T03:14:25;98603.88;;;6.19;100.00
24486;BME280;13449;49.374;8.584;2024-02-23T03:16:52;98596.72;;;6.21;100.00
24486;BME280;13449;49.374;8.584;2024-02-23T03:19:18;98587.38;;;6.38;100.00
24486;BME280;13449;49.374;8.584;2024-02-23T03:21:49;98588.75;;;6.33;100.00
24486;BME280;13449;49.374;8.584;2024-02-23T03:24:18;98579.38;;;6.40;100.00
24486;BME280;13449;49.374;8.584;2024-02-23T03:26:47;98581.03;;;6.41;100.00
24486;BME280;13449;49.374;8.584;2024-02-23T03:29:13;98569.47;;;6.53;100.00
24486;BME280;13449;49.374;8.584;2024-02-23T03:31:40;98556.94;;;6.66;100.00
24486;BME280;13449;49.374;8.584;2024-02-23T03:34:09;98552.50;;;6.76;100.00
24486;BME280;13449;49.374;8.584;2024-02-23T03:36:40;98546.06;;;6.80;100.00
24486;BME280;13449;49.374;8.584;2024-02-23T03:39:12;98532.69;;;6.83;100.00
24486;BME280;13449;49.374;8.584;2024-02-23T03:41:38;98531.72;;;6.84;100.00
24486;BME280;13449;49.374;8.584;2024-02-23T03:44:05;98525.13;;;6.80;100.00
24486;BME280;13449;49.374;8.584;2024-02-23T03:46:32;98521.25;;;6.75;100.00
24486;BME280;13449;49.374;8.584;2024-02-23T03:48:58;98528.97;;;6.76;100.00
24486;BME280;13449;49.374;8.584;2024-02-23T03:51:25;98532.25;;;6.78;100.00
24486;BME280;13449;49.374;8.584;2024-02-23T03:53:51;98528.69;;;6.79;100.00
24486;BME280;13449;49.374;8.584;2024-02-23T03:56:18;98544.41;;;6.79;100.00
24486;BME280;13449;49.374;8.584;2024-02-23T03:58:45;98538.88;;;6.82;100.00
24486;BME280;13449;49.374;8.584;2024-02-23T04:01:12;98537.22;;;6.81;100.00
24486;BME280;13449;49.374;8.584;2024-02-23T04:03:38;98533.94;;;6.79;100.00
24486;BME280;13449;49.374;8.584;2024-02-23T04:06:05;98541.50;;;6.82;100.00
24486;BME280;13449;49.374;8.584;2024-02-23T04:08:32;98547.41;;;6.84;100.00
24486;BME280;13449;49.374;8.584;2024-02-23T04:10:59;98551.97;;;6.82;100.00
24486;BME280;13449;49.374;8.584;2024-02-23T04:13:28;98552.94;;;6.81;100.00
24486;BME280;13449;49.374;8.584;2024-02-23T04:15:54;98549.88;;;6.76;100.00
24486;BME280;13449;49.374;8.584;2024-02-23T04:18:24;98557.91;;;6.65;100.00
24486;BME280;13449;49.374;8.584;2024-02-23T04:20:53;98571.81;;;6.66;100.00
24486;BME280;13449;49.374;8.584;2024-02-23T04:23:19;98572.78;;;6.55;100.00
24486;BME280;13449;49.374;8.584;2024-02-23T04:25:48;98588.47;;;6.55;100.00
24486;BME280;13449;49.374;8.584;2024-02-23T04:28:17;98595.34;;;6.56;100.00
24486;BME280;13449;49.374;8.584;2024-02-23T04:30:44;98590.41;;;6.53;100.00
24486;BME280;13449;49.374;8.584;2024-02-23T04:33:13;98592.34;;;6.51;100.00
24486;BME280;13449;49.374;8.584;2024-02-23T04:35:42;98597.84;;;6.48;100.00
24486;BME280;13449;49.374;8.584;2024-02-23T04:38:09;98603.06;;;6.48;100.00
24486;BME280;13449;49.374;8.584;2024-02-23T04:40:35;98604.97;;;6.46;100.00
24486;BME280;13449;49.374;8.584;2024-02-23T04:43:02;98610.06;;;6.38;100.00
24486;BME280;13449;49.374;8.584;2024-02-23T04:45:29;98614.63;;;6.36;100.00
24486;BME280;13449;49.374;8.584;2024-02-23T04:47:56;98613.25;;;6.32;100.00
24486;BME280;13449;49.374;8.584;2024-02-23T04:50:22;98614.63;;;6.36;100.00
24486;BME280;13449;49.374;8.584;2024-02-23T04:52:49;98613.94;;;6.34;100.00
24486;BME280;13449;49.374;8.584;2024-02-23T04:55:16;98601.09;;;6.30;100.00
24486;BME280;13449;49.374;8.584;2024-02-23T04:57:43;98603.03;;;6.28;100.00
24486;BME280;13449;49.374;8.584;2024-02-23T05:00:10;98596.97;;;6.28;100.00
24486;BME280;13449;49.374;8.584;2024-02-23T05:02:39;98601.66;;;6.24;100.00
24486;BME280;13449;49.374;8.584;2024-02-23T05:05:06;98596.44;;;6.24;100.00
24486;BME280;13449;49.374;8.584;2024-02-23T05:07:33;98603.84;;;6.29;100.00
24486;BME280;13449;49.374;8.584;2024-02-23T05:10:00;98603.31;;;6.25;100.00
24486;BME280;13449;49.374;8.584;2024-02-23T05:12:27;98607.72;;;6.25;100.00
24486;BME280;13449;49.374;8.584;2024-02-23T05:14:58;98602.06;;;6.29;100.00
24486;BME280;13449;49.374;8.584;2024-02-23T05:17:25;98606.63;;;6.27;100.00
24486;BME280;13449;49.374;8.584;2024-02-23T05:19:51;98606.75;;;6.26;100.00
24486;BME280;13449;49.374;8.584;2024-02-23T05:22:18;98608.81;;;6.22;100.00
24486;BME280;13449;49.374;8.584;2024-02-23T05:24:45;98609.09;;;6.19;100.00
24486;BME280;13449;49.374;8.584;2024-02-23T05:27:12;98616.25;;;6.17;100.00
24486;BME280;13449;49.374;8.584;2024-02-23T05:29:38;98618.16;;;6.15;100.00
24486;BME280;13449;49.374;8.584;2024-02-23T05:32:05;98614.84;;;6.13;100.00
24486;BME280;13449;49.374;8.584;2024-02-23T05:34:34;98628.34;;;6.18;100.00
24486;BME280;13449;49.374;8.584;2024-02-23T05:37:02;98624.50;;;6.22;100.00
24486;BME280;13449;49.374;8.584;2024-02-23T05:39:29;98629.03;;;6.20;100.00
24486;BME280;13449;49.374;8.584;2024-02-23T05:41:55;98631.38;;;6.23;100.00
24486;BME280;13449;49.374;8.584;2024-02-23T05:44:23;98641.56;;;6.26;100.00
24486;BME280;13449;49.374;8.584;2024-02-23T05:46:50;98631.09;;;6.26;100.00
24486;BME280;13449;49.374;8.584;2024-02-23T05:49:16;98644.06;;;6.38;100.00
24486;BME280;13449;49.374;8.584;2024-02-23T05:51:43;98632.38;;;6.32;100.00
24486;BME280;13449;49.374;8.584;2024-02-23T05:54:10;98637.47;;;6.34;100.00
24486;BME280;13449;49.374;8.584;2024-02-23T05:56:36;98648.34;;;6.39;100.00
24486;BME280;13449;49.374;8.584;2024-02-23T05:59:04;98655.22;;;6.40;100.00
24486;BME280;13449;49.374;8.584;2024-02-23T06:01:30;98651.91;;;6.38;100.00
24486;BME280;13449;49.374;8.584;2024-02-23T06:03:57;98648.63;;;6.36;100.00
24486;BME280;13449;49.374;8.584;2024-02-23T06:06:23;98650.69;;;6.42;100.00
24486;BME280;13449;49.374;8.584;2024-02-23T06:08:53;98653.16;;;6.34;100.00
24486;BME280;13449;49.374;8.584;2024-02-23T06:11:20;98654.66;;;6.46;100.00
24486;BME280;13449;49.374;8.584;2024-02-23T06:13:47;98645.16;;;6.45;100.00
24486;BME280;13449;49.374;8.584;2024-02-23T06:16:14;98647.94;;;6.34;100.00
24486;BME280;13449;49.374;8.584;2024-02-23T06:18:41;98645.31;;;6.34;100.00
24486;BME280;13449;49.374;8.584;2024-02-23T06:21:17;98651.50;;;6.33;100.00
24486;BME280;13449;49.374;8.584;2024-02-23T06:23:48;98657.38;;;6.25;100.00
24486;BME280;13449;49.374;8.584;2024-02-23T06:26:15;98660.69;;;6.17;100.00
24486;BME280;13449;49.374;8.584;2024-02-23T06:28:42;98658.50;;;6.22;100.00
24486;BME280;13449;49.374;8.584;2024-02-23T06:31:09;98653.22;;;6.13;100.00
24486;BME280;13449;49.374;8.584;2024-02-23T06:33:36;98647.59;;;6.08;100.00
24486;BME280;13449;49.374;8.584;2024-02-23T06:36:03;98650.34;;;6.06;100.00
24486;BME280;13449;49.374;8.584;2024-02-23T06:38:33;98661.44;;;5.98;100.00
24486;BME280;13449;49.374;8.584;2024-02-23T06:40:59;98645.00;;;5.87;100.00
24486;BME280;13449;49.374;8.584;2024-02-23T06:43:26;98653.69;;;5.87;100.00
24486;BME280;13449;49.374;8.584;2024-02-23T06:45:53;98656.25;;;5.78;100.00
24486;BME280;13449;49.374;8.584;2024-02-23T06:48:20;98662.13;;;5.70;100.00
24486;BME280;13449;49.374;8.584;2024-02-23T06:50:47;98650.13;;;5.58;100.00
24486;BME280;13449;49.374;8.584;2024-02-23T06:53:13;98654.31;;;5.49;100.00
24486;BME280;13449;49.374;8.584;2024-02-23T06:55:40;98653.88;;;5.44;100.00
24486;BME280;13449;49.374;8.584;2024-02-23T06:58:06;98652.22;;;5.43;100.00
24486;BME280;13449;49.374;8.584;2024-02-23T07:00:33;98654.72;;;5.45;100.00
24486;BME280;13449;49.374;8.584;2024-02-23T07:03:01;98647.91;;;5.53;100.00
24486;BME280;13449;49.374;8.584;2024-02-23T07:05:30;98646.47;;;5.49;100.00
24486;BME280;13449;49.374;8.584;2024-02-23T07:07:57;98643.97;;;5.38;100.00
24486;BME280;13449;49.374;8.584;2024-02-23T07:10:24;98643.19;;;5.47;100.00
24486;BME280;13449;49.374;8.584;2024-02-23T07:12:52;98643.44;;;5.44;100.00
24486;BME280;13449;49.374;8.584;2024-02-23T07:15:23;98647.78;;;5.34;100.00
24486;BME280;13449;49.374;8.584;2024-02-23T07:17:51;98650.16;;;5.37;100.00
24486;BME280;13449;49.374;8.584;2024-02-23T07:20:19;98657.25;;;5.35;100.00
24486;BME280;13449;49.374;8.584;2024-02-23T07:22:47;98656.44;;;5.34;100.00
24486;BME280;13449;49.374;8.584;2024-02-23T07:25:18;98658.91;;;5.36;100.00
24486;BME280;13449;49.374;8.584;2024-02-23T07:27:47;98658.81;;;5.37;100.00
24486;BME280;13449;49.374;8.584;2024-02-23T07:30:18;98661.28;;;5.39;100.00
24486;BME280;13449;49.374;8.584;2024-02-23T07:32:45;98667.56;;;5.36;100.00
24486;BME280;13449;49.374;8.584;2024-02-23T07:35:18;98677.91;;;5.38;100.00
24486;BME280;13449;49.374;8.584;2024-02-23T07:37:45;98678.00;;;5.36;100.00
24486;BME280;13449;49.374;8.584;2024-02-23T07:40:13;98670.56;;;5.32;100.00
24486;BME280;13449;49.374;8.584;2024-02-23T07:42:42;98671.66;;;5.29;100.00
24486;BME280;13449;49.374;8.584;2024-02-23T07:45:09;98674.13;;;5.31;100.00
24486;BME280;13449;49.374;8.584;2024-02-23T07:47:37;98677.97;;;5.27;100.00
24486;BME280;13449;49.374;8.584;2024-02-23T07:50:04;98680.16;;;5.22;100.00
24486;BME280;13449;49.374;8.584;2024-02-23T07:52:31;98687.84;;;5.23;100.00
24486;BME280;13449;49.374;8.584;2024-02-23T07:54:58;98695.03;;;5.31;100.00
24486;BME280;13449;49.374;8.584;2024-02-23T07:57:26;98695.66;;;5.44;100.00
24486;BME280;13449;49.374;8.584;2024-02-23T07:59:53;98693.50;;;5.49;100.00
24486;BME280;13449;49.374;8.584;2024-02-23T08:02:19;98696.59;;;5.64;100.00
24486;BME280;13449;49.374;8.584;2024-02-23T08:04:46;98698.19;;;5.76;100.00
24486;BME280;13449;49.374;8.584;2024-02-23T08:07:14;98697.88;;;5.90;100.00
24486;BME280;13449;49.374;8.584;2024-02-23T08:09:41;98701.66;;;6.07;100.00
24486;BME280;13449;49.374;8.584;2024-02-23T08:12:11;98697.34;;;6.37;100.00
24486;BME280;13449;49.374;8.584;2024-02-23T08:14:40;98697.25;;;6.67;100.00
24486;BME280;13449;49.374;8.584;2024-02-23T08:17:10;98692.72;;;6.88;100.00
24486;BME280;13449;49.374;8.584;2024-02-23T08:19:37;98682.66;;;6.94;100.00
24486;BME280;13449;49.374;8.584;2024-02-23T08:22:06;98684.88;;;7.08;100.00
24486;BME280;13449;49.374;8.584;2024-02-23T08:24:33;98689.56;;;7.14;100.00
24486;BME280;13449;49.374;8.584;2024-02-23T08:26:59;98682.25;;;7.27;100.00
24486;BME280;13449;49.374;8.584;2024-02-23T08:29:26;98686.34;;;7.39;100.00
24486;BME280;13449;49.374;8.584;2024-02-23T08:31:54;98687.75;;;7.43;100.00
24486;BME280;13449;49.374;8.584;2024-02-23T08:34:20;98677.22;;;7.53;100.00
24486;BME280;13449;49.374;8.584;2024-02-23T08:36:47;98675.13;;;7.57;100.00
24486;BME280;13449;49.374;8.584;2024-02-23T08:39:13;98677.31;;;7.71;100.00
24486;BME280;13449;49.374;8.584;2024-02-23T08:41:40;98670.63;;;7.86;100.00
24486;BME280;13449;49.374;8.584;2024-02-23T08:44:07;98670.38;;;7.89;100.00
24486;BME280;13449;49.374;8.584;2024-02-23T08:46:33;98658.50;;;7.85;100.00
24486;BME280;13449;49.374;8.584;2024-02-23T08:49:00;98653.16;;;8.04;100.00
24486;BME280;13449;49.374;8.584;2024-02-23T08:51:26;98650.19;;;8.17;100.00
24486;BME280;13449;49.374;8.584;2024-02-23T08:53:53;98649.06;;;8.20;100.00
24486;BME280;13449;49.374;8.584;2024-02-23T08:56:23;98644.25;;;8.25;100.00
24486;BME280;13449;49.374;8.584;2024-02-23T08:58:49;98634.03;;;8.22;100.00
24486;BME280;13449;49.374;8.584;2024-02-23T09:01:16;98631.78;;;8.36;100.00
24486;BME280;13449;49.374;8.584;2024-02-23T09:03:43;98625.88;;;8.52;100.00
24486;BME280;13449;49.374;8.584;2024-02-23T09:06:12;98626.91;;;8.59;100.00
24486;BME280;13449;49.374;8.584;2024-02-23T09:08:39;98626.97;;;8.67;100.00
24486;BME280;13449;49.374;8.584;2024-02-23T09:11:07;98630.72;;;8.83;100.00
24486;BME280;13449;49.374;8.584;2024-02-23T09:13:34;98620.16;;;8.75;100.00
24486;BME280;13449;49.374;8.584;2024-02-23T09:16:01;98631.78;;;8.72;100.00
24486;BME280;13449;49.374;8.584;2024-02-23T09:18:27;98620.16;;;8.75;100.00
24486;BME280;13449;49.374;8.584;2024-02-23T09:20:54;98619.53;;;8.81;100.00
24486;BME280;13449;49.374;8.584;2024-02-23T09:23:20;98614.91;;;8.75;100.00
24486;BME280;13449;49.374;8.584;2024-02-23T09:25:47;98603.50;;;8.84;100.00
24486;BME280;13449;49.374;8.584;2024-02-23T09:28:15;98609.59;;;8.84;100.00
24486;BME280;13449;49.374;8.584;2024-02-23T09:30:41;98604.19;;;8.86;100.00
24486;BME280;13449;49.374;8.584;2024-02-23T09:33:08;98606.69;;;8.95;100.00
24486;BME280;13449;49.374;8.584;2024-02-23T09:35:35;98609.72;;;9.00;100.00
24486;BME280;13449;49.374;8.584;2024-02-23T09:38:04;98590.25;;;9.11;100.00
24486;BME280;13449;49.374;8.584;2024-02-23T09:40:31;98586.94;;;9.09;100.00
24486;BME280;13449;49.374;8.584;2024-02-23T09:42:58;98584.69;;;9.14;100.00
24486;BME280;13449;49.374;8.584;2024-02-23T09:45:28;98587.22;;;9.24;100.00
24486;BME280;13449;49.374;8.584;2024-02-23T09:47:57;98591.97;;;9.20;100.00
24486;BME280;13449;49.374;8.584;2024-02-23T09:50:24;98589.94;;;9.14;100.00
24486;BME280;13449;49.374;8.584;2024-02-23T09:52:52;98589.34;;;9.20;100.00
24486;BME280;13449;49.374;8.584;2024-02-23T09:55:20;98590.34;;;9.27;100.00
24486;BME280;13449;49.374;8.584;2024-02-23T09:57:48;98600.53;;;9.30;100.00
24486;BME280;13449;49.374;8.584;2024-02-23T10:00:20;98600.53;;;9.30;100.00
24486;BME280;13449;49.374;8.584;2024-02-23T10:02:48;98592.47;;;9.24;100.00
24486;BME280;13449;49.374;8.584;2024-02-23T10:05:18;98598.22;;;9.27;100.00
24486;BME280;13449;49.374;8.584;2024-02-23T10:07:45;98602.72;;;9.09;100.00
24486;BME280;13449;49.374;8.584;2024-02-23T10:10:13;98600.44;;;9.14;100.00
24486;BME280;13449;49.374;8.584;2024-02-23T10:12:39;98603.75;;;8.98;100.00
24486;BME280;13449;49.374;8.584;2024-02-23T10:15:08;98615.25;;;8.97;100.00
24486;BME280;13449;49.374;8.584;2024-02-23T10:17:35;98622.38;;;9.05;100.00
24486;BME280;13449;49.374;8.584;2024-02-23T10:20:05;98625.00;;;9.05;100.00
24486;BME280;13449;49.374;8.584;2024-02-23T10:22:32;98622.06;;;9.08;100.00
24486;BME280;13449;49.374;8.584;2024-02-23T10:24:59;98620.06;;;9.02;100.00
24486;BME280;13449;49.374;8.584;2024-02-23T10:27:26;98633.50;;;9.25;100.00
24486;BME280;13449;49.374;8.584;2024-02-23T10:29:52;98619.00;;;9.39;100.00
24486;BME280;13449;49.374;8.584;2024-02-23T10:32:20;98622.72;;;9.62;100.00
24486;BME280;13449;49.374;8.584;2024-02-23T10:34:48;98616.28;;;9.82;100.00
24486;BME280;13449;49.374;8.584;2024-02-23T10:37:18;98616.88;;;9.76;100.00
24486;BME280;13449;49.374;8.584;2024-02-23T10:39:45;98618.03;;;9.74;100.00
24486;BME280;13449;49.374;8.584;2024-02-23T10:42:12;98613.50;;;9.84;100.00
24486;BME280;13449;49.374;8.584;2024-02-23T10:44:41;98621.47;;;9.66;100.00
24486;BME280;13449;49.374;8.584;2024-02-23T10:47:09;98611.78;;;9.41;100.00
24486;BME280;13449;49.374;8.584;2024-02-23T10:49:38;98614.66;;;9.29;100.00
24486;BME280;13449;49.374;8.584;2024-02-23T10:52:05;98616.94;;;9.24;100.00
24486;BME280;13449;49.374;8.584;2024-02-23T10:54:36;98608.81;;;9.36;100.00
24486;BME280;13449;49.374;8.584;2024-02-23T10:57:03;98618.19;;;9.72;100.00
24486;BME280;13449;49.374;8.584;2024-02-23T10:59:30;98616.13;;;9.92;100.00
24486;BME280;13449;49.374;8.584;2024-02-23T11:01:58;98619.56;;;9.84;100.00
24486;BME280;13449;49.374;8.584;2024-02-23T11:04:27;98612.31;;;9.78;100.00
24486;BME280;13449;49.374;8.584;2024-02-23T11:06:55;98607.06;;;9.78;100.00
24486;BME280;13449;49.374;8.584;2024-02-23T11:09:25;98602.50;;;9.88;100.00
24486;BME280;13449;49.374;8.584;2024-02-23T11:11:56;98603.22;;;10.07;100.00
24486;BME280;13449;49.374;8.584;2024-02-23T11:14:34;98584.78;;;10.07;100.00
24486;BME280;13449;49.374;8.584;2024-02-23T11:17:01;98589.75;;;10.10;100.00
24486;BME280;13449;49.374;8.584;2024-02-23T11:19:36;98587.78;;;10.20;100.00
24486;BME280;13449;49.374;8.584;2024-02-23T11:22:04;98587.69;;;10.30;100.00
24486;BME280;13449;49.374;8.584;2024-02-23T11:24:51;98582.28;;;10.56;100.00
24486;BME280;13449;49.374;8.584;2024-02-23T11:27:24;98577.03;;;10.64;100.00
24486;BME280;13449;49.374;8.584;2024-02-23T11:29:59;98576.56;;;10.60;100.00
24486;BME280;13449;49.374;8.584;2024-02-23T11:35:06;98577.69;;;10.66;100.00
24486;BME280;13449;49.374;8.584;2024-02-23T11:37:37;98581.81;;;10.68;100.00
24486;BME280;13449;49.374;8.584;2024-02-23T11:40:13;98585.94;;;10.63;100.00
24486;BME280;13449;49.374;8.584;2024-02-23T11:42:42;98581.50;;;10.63;100.00
24486;BME280;13449;49.374;8.584;2024-02-23T11:45:10;98574.22;;;10.57;100.00
24486;BME280;13449;49.374;8.584;2024-02-23T11:47:38;98575.72;;;10.43;100.00
24486;BME280;13449;49.374;8.584;2024-02-23T11:50:09;98577.16;;;10.30;100.00
24486;BME280;13449;49.374;8.584;2024-02-23T11:52:40;98574.31;;;10.15;100.00
24486;BME280;13449;49.374;8.584;2024-02-23T11:55:07;98578.25;;;10.19;100.00
24486;BME280;13449;49.374;8.584;2024-02-23T11:57:35;98584.84;;;10.15;100.00
24486;BME280;13449;49.374;8.584;2024-02-23T12:00:14;98584.59;;;9.92;100.00
24486;BME280;13449;49.374;8.584;2024-02-23T12:02:44;98584.41;;;9.85;100.00
24486;BME280;13449;49.374;8.584;2024-02-23T12:05:16;98588.72;;;9.95;100.00
24486;BME280;13449;49.374;8.584;2024-02-23T12:07:44;98589.41;;;10.05;100.00
24486;BME280;13449;49.374;8.584;2024-02-23T12:10:13;98591.09;;;10.14;100.00
24486;BME280;13449;49.374;8.584;2024-02-23T12:12:43;98585.53;;;10.25;100.00
24486;BME280;13449;49.374;8.584;2024-02-23T12:15:09;98578.31;;;10.27;100.00
24486;BME280;13449;49.374;8.584;2024-02-23T12:17:36;98568.22;;;10.14;100.00
24486;BME280;13449;49.374;8.584;2024-02-23T12:20:07;98569.44;;;10.28;100.00
24486;BME280;13449;49.374;8.584;2024-02-23T12:22:34;98571.09;;;10.37;100.00
24486;BME280;13449;49.374;8.584;2024-02-23T12:25:01;98572.75;;;10.46;100.00
24486;BME280;13449;49.374;8.584;2024-02-23T12:27:31;98584.59;;;10.50;100.00
24486;BME280;13449;49.374;8.584;2024-02-23T12:29:58;98584.28;;;10.45;100.00
24486;BME280;13449;49.374;8.584;2024-02-23T12:32:30;98581.00;;;10.68;100.00
24486;BME280;13449;49.374;8.584;2024-02-23T12:34:56;98581.31;;;10.81;100.00
24486;BME280;13449;49.374;8.584;2024-02-23T12:37:27;98585.91;;;10.71;100.00
24486;BME280;13449;49.374;8.584;2024-02-23T12:39:54;98581.16;;;10.58;100.00
24486;BME280;13449;49.374;8.584;2024-02-23T12:42:20;98578.66;;;10.40;100.00
24486;BME280;13449;49.374;8.584;2024-02-23T12:44:47;98583.41;;;10.37;100.00
24486;BME280;13449;49.374;8.584;2024-02-23T12:47:14;98582.59;;;10.28;100.00
24486;BME280;13449;49.374;8.584;2024-02-23T12:49:40;98588.84;;;10.35;100.00
24486;BME280;13449;49.374;8.584;2024-02-23T12:52:12;98573.72;;;10.37;100.00
24486;BME280;13449;49.374;8.584;2024-02-23T12:54:38;98581.31;;;10.48;100.00
24486;BME280;13449;49.374;8.584;2024-02-23T12:57:05;98575.38;;;10.71;100.00
24486;BME280;13449;49.374;8.584;2024-02-23T12:59:32;98566.84;;;10.77;100.00
24486;BME280;13449;49.374;8.584;2024-02-23T13:01:58;98562.88;;;10.73;100.00
24486;BME280;13449;49.374;8.584;2024-02-23T13:04:27;98564.53;;;10.90;100.00
24486;BME280;13449;49.374;8.584;2024-02-23T13:06:54;98557.28;;;11.00;100.00